Terminal Aerodrome Forecast
Issued by NWS Milwaukee/Sullivan, WI

Home | Current Version | Previous Version | Text Only | Print | Product List | Glossary On
Versions: 1 2 3 4 5 6 7 8 9 10 11 12 13 14 15 16 17 18 19 20
000
FTUS43 KMKX 210413 AAB
TAFMSN
TAF AMD
KMSN 210413Z 2104/2124 22007KT 3SM -SHRA BR SCT004 SCT015 OVC025
     FM210700 24007KT 3SM -SHRA BR SCT008 OVC015
     FM210900 27008KT 2SM BR BKN008
     FM211100 27008KT 3SM BR SCT008 OVC015
     FM211500 29007KT P6SM SCT015
     FM212000 24007KT P6SM SKC
     FM212300 21006KT P6SM FEW200=

USA.gov is the U.S. government's official web portal to all federal, state and local government web resources and services.